createdAt,value
2023-09-13T00:02:16.935Z,13.50
2023-09-13T00:04:44.412Z,9.80
2023-09-13T00:07:11.734Z,9.60
2023-09-13T00:09:42.286Z,10.80
2023-09-13T00:12:09.657Z,12.40
2023-09-13T00:14:36.908Z,10.30
2023-09-13T00:17:04.413Z,12.90
2023-09-13T00:19:31.307Z,13.10
2023-09-13T00:21:58.516Z,9.60
2023-09-13T00:24:25.605Z,17.00
2023-09-13T00:26:52.474Z,11.20
2023-09-13T00:29:19.712Z,11.50
2023-09-13T00:31:47.154Z,10.00
2023-09-13T00:34:14.246Z,14.00
2023-09-13T00:36:41.570Z,8.80
2023-09-13T00:39:08.725Z,13.90
2023-09-13T00:41:35.454Z,12.80
2023-09-13T00:44:02.397Z,9.60
2023-09-13T00:46:29.409Z,12.80
2023-09-13T00:48:56.693Z,14.90
2023-09-13T00:51:23.737Z,15.90
2023-09-13T00:53:50.601Z,9.30
2023-09-13T00:56:17.424Z,12.40
2023-09-13T00:58:45.026Z,9.80
2023-09-13T01:01:13.530Z,9.30
2023-09-13T01:03:41.893Z,12.10
2023-09-13T01:06:10.329Z,13.50
2023-09-13T01:08:42.383Z,11.10
2023-09-13T01:11:09.155Z,9.10
2023-09-13T01:13:36.693Z,12.20
2023-09-13T01:16:22.801Z,13.00
2023-09-13T01:19:08.387Z,12.90
2023-09-13T01:21:56.837Z,11.40
2023-09-13T01:24:42.856Z,10.00
2023-09-13T01:27:50.321Z,10.30
2023-09-13T01:30:17.446Z,14.10
2023-09-13T01:32:47.480Z,12.80
2023-09-13T01:35:14.303Z,10.10
2023-09-13T01:37:41.555Z,11.80
2023-09-13T01:40:10.289Z,13.40
2023-09-13T01:42:38.831Z,11.00
2023-09-13T01:45:10.951Z,11.10
2023-09-13T01:47:42.995Z,12.30
2023-09-13T01:50:10.134Z,8.00
2023-09-13T01:52:37.167Z,16.10
2023-09-13T01:55:08.190Z,12.80
2023-09-13T01:57:35.042Z,13.50
2023-09-13T02:00:02.078Z,16.10
2023-09-13T02:02:39.413Z,11.10
2023-09-13T02:05:07.664Z,16.30
2023-09-13T02:07:34.586Z,12.90
2023-09-13T02:10:01.381Z,12.40
2023-09-13T02:12:29.818Z,11.80
2023-09-13T02:14:56.757Z,10.80
2023-09-13T02:17:23.620Z,12.70
2023-09-13T02:19:51.270Z,12.40
2023-09-13T02:22:18.208Z,13.70
2023-09-13T02:24:45.228Z,13.20
2023-09-13T02:27:13.363Z,15.00
2023-09-13T02:29:40.387Z,13.90
2023-09-13T02:32:07.438Z,13.00
2023-09-13T02:34:34.268Z,14.00
2023-09-13T02:37:01.221Z,18.10
2023-09-13T02:39:38.038Z,13.60
2023-09-13T02:42:05.983Z,12.60
2023-09-13T02:44:33.718Z,12.40
2023-09-13T02:47:01.140Z,13.50
2023-09-13T02:49:28.259Z,17.20
2023-09-13T02:51:55.240Z,13.20
2023-09-13T02:54:22.316Z,17.70
2023-09-13T02:56:55.983Z,17.30
2023-09-13T02:59:22.968Z,16.40
2023-09-13T03:01:50.747Z,20.60
2023-09-13T03:04:17.973Z,19.50
2023-09-13T03:06:47.399Z,16.70
2023-09-13T03:09:14.348Z,18.00
2023-09-13T03:11:41.075Z,20.50
2023-09-13T03:14:08.226Z,16.40
2023-09-13T03:16:35.590Z,20.30
2023-09-13T03:19:04.154Z,15.20
2023-09-13T03:21:35.515Z,18.30
2023-09-13T03:24:02.550Z,16.30
2023-09-13T03:26:29.819Z,18.20
2023-09-13T03:28:57.460Z,17.40
2023-09-13T03:31:26.057Z,17.40
2023-09-13T03:33:55.149Z,15.20
2023-09-13T03:36:22.280Z,15.30
2023-09-13T03:38:52.309Z,14.90
2023-09-13T03:41:22.317Z,16.80
2023-09-13T03:43:49.902Z,14.90
2023-09-13T03:46:16.988Z,15.50
2023-09-13T03:48:44.627Z,15.00
2023-09-13T03:51:12.334Z,14.40
2023-09-13T03:53:39.282Z,15.30
2023-09-13T03:56:06.651Z,16.20
2023-09-13T03:58:36.881Z,14.80
2023-09-13T04:01:05.083Z,15.20
2023-09-13T04:03:33.313Z,15.60
2023-09-13T04:06:01.189Z,13.70
2023-09-13T04:08:31.110Z,17.40
2023-09-13T04:10:57.940Z,14.40
2023-09-13T04:13:24.958Z,13.10
2023-09-13T04:15:52.378Z,16.20
2023-09-13T04:18:19.540Z,15.00
2023-09-13T04:20:49.612Z,15.30
2023-09-13T04:23:16.664Z,15.60
2023-09-13T04:25:43.982Z,16.20
2023-09-13T04:28:11.251Z,15.50
2023-09-13T04:30:38.453Z,17.60
2023-09-13T04:33:07.136Z,14.60
2023-09-13T04:35:34.448Z,16.20
2023-09-13T04:38:01.415Z,13.90
2023-09-13T04:40:29.019Z,13.00
2023-09-13T04:43:17.132Z,21.30
2023-09-13T04:45:44.806Z,15.40
2023-09-13T04:48:12.212Z,15.50
2023-09-13T04:50:39.076Z,16.10
2023-09-13T04:53:07.840Z,17.50
2023-09-13T04:55:34.889Z,18.30
2023-09-13T04:58:01.983Z,15.60
2023-09-13T05:00:29.400Z,12.80
2023-09-13T05:02:56.463Z,14.10
2023-09-13T05:05:24.004Z,14.50
2023-09-13T05:07:52.393Z,14.50
2023-09-13T05:10:19.140Z,14.60
2023-09-13T05:12:49.088Z,15.10
2023-09-13T05:15:16.184Z,15.40
2023-09-13T05:17:43.550Z,16.60
2023-09-13T05:20:10.377Z,15.70
2023-09-13T05:22:37.323Z,13.30
2023-09-13T05:25:04.960Z,13.20
2023-09-13T05:27:31.933Z,13.60
2023-09-13T05:29:58.973Z,14.40
2023-09-13T05:32:26.275Z,11.60
2023-09-13T05:34:53.407Z,12.00
2023-09-13T05:37:20.559Z,12.70
2023-09-13T05:39:47.981Z,12.20
2023-09-13T05:42:15.461Z,14.80
2023-09-13T05:44:42.412Z,14.10
2023-09-13T05:47:09.346Z,13.50
2023-09-13T05:49:36.283Z,11.50
2023-09-13T05:52:03.675Z,13.00
2023-09-13T05:54:30.690Z,17.00
2023-09-13T05:56:57.597Z,14.50
2023-09-13T05:59:24.784Z,13.50
2023-09-13T06:01:52.118Z,15.20
2023-09-13T06:04:19.421Z,15.40
2023-09-13T06:06:46.643Z,12.80
2023-09-13T06:09:13.908Z,13.50
2023-09-13T06:11:41.037Z,13.10
2023-09-13T06:14:10.987Z,15.30
2023-09-13T06:16:40.982Z,11.90
2023-09-13T06:19:08.501Z,14.20
2023-09-13T06:21:35.566Z,11.90
2023-09-13T06:24:02.516Z,12.80
2023-09-13T06:26:29.777Z,11.60
2023-09-13T06:28:57.517Z,12.60
2023-09-13T06:31:32.903Z,13.20
2023-09-13T06:36:32.804Z,14.70
2023-09-13T06:39:00.723Z,13.60
2023-09-13T06:41:28.499Z,15.10
2023-09-13T06:44:07.066Z,13.30
2023-09-13T06:46:41.079Z,13.30
2023-09-13T06:49:08.849Z,14.30
2023-09-13T06:54:09.043Z,13.00
2023-09-13T06:56:37.656Z,12.70
2023-09-13T06:59:10.260Z,10.90
2023-09-13T07:02:05.955Z,15.70
2023-09-13T07:04:31.671Z,11.70
2023-09-13T07:07:02.561Z,12.50
2023-09-13T07:09:29.664Z,17.40
2023-09-13T07:11:56.705Z,12.50
2023-09-13T07:14:27.024Z,11.00
2023-09-13T07:16:54.506Z,13.10
2023-09-13T07:19:21.630Z,12.50
2023-09-13T07:21:49.927Z,11.70
2023-09-13T07:24:17.662Z,19.70
2023-09-13T07:26:44.595Z,15.60
2023-09-13T07:29:11.641Z,13.00
2023-09-13T07:31:38.728Z,13.00
2023-09-13T07:34:05.565Z,11.80
2023-09-13T07:36:32.909Z,15.70
2023-09-13T07:39:01.796Z,15.00
2023-09-13T07:41:29.071Z,15.40
2023-09-13T07:43:56.140Z,12.60
2023-09-13T07:46:23.771Z,15.90
2023-09-13T07:48:50.907Z,17.90
2023-09-13T07:51:17.840Z,9.50
2023-09-13T07:53:45.119Z,14.40
2023-09-13T07:56:12.183Z,12.70
2023-09-13T07:58:39.120Z,13.60
2023-09-13T08:01:06.283Z,12.80
2023-09-13T08:03:33.741Z,13.40
2023-09-13T08:06:04.223Z,11.70
2023-09-13T08:08:33.769Z,13.10
2023-09-13T08:11:01.177Z,12.20
2023-09-13T08:13:28.634Z,12.90
2023-09-13T08:15:56.050Z,10.60
2023-09-13T08:18:22.895Z,10.80
2023-09-13T08:20:51.400Z,11.60
2023-09-13T08:23:18.623Z,14.20
2023-09-13T08:25:46.307Z,14.00
2023-09-13T08:28:13.338Z,11.60
2023-09-13T08:30:40.604Z,11.40
2023-09-13T08:33:08.488Z,11.40
2023-09-13T08:35:35.669Z,13.60
2023-09-13T08:38:02.735Z,13.00
2023-09-13T08:40:30.536Z,11.30
2023-09-13T08:42:57.562Z,15.10
2023-09-13T08:45:24.649Z,12.20
2023-09-13T08:47:58.761Z,14.30
2023-09-13T08:50:29.242Z,15.00
2023-09-13T08:53:00.116Z,15.00
2023-09-13T08:55:27.304Z,10.10
2023-09-13T08:57:56.136Z,11.00
2023-09-13T09:00:24.486Z,15.00
2023-09-13T09:02:51.585Z,13.00
2023-09-13T09:05:18.877Z,12.10
2023-09-13T09:07:45.823Z,10.70
2023-09-13T09:10:13.765Z,15.20
2023-09-13T09:12:47.163Z,12.30
2023-09-13T09:15:14.617Z,10.90
2023-09-13T09:17:42.388Z,12.00
2023-09-13T09:20:09.670Z,14.10
2023-09-13T09:22:36.807Z,14.20
2023-09-13T09:25:06.928Z,11.60
2023-09-13T09:27:34.178Z,10.30
2023-09-13T09:30:03.937Z,13.50
2023-09-13T09:32:31.378Z,11.90
2023-09-13T09:34:59.009Z,12.10
2023-09-13T09:37:33.687Z,9.90
2023-09-13T09:40:02.467Z,13.30
2023-09-13T09:42:30.104Z,11.30
2023-09-13T09:44:57.101Z,15.20
2023-09-13T09:47:24.084Z,9.40
2023-09-13T09:49:50.839Z,12.70
2023-09-13T09:52:18.957Z,12.00
2023-09-13T09:54:51.929Z,11.00
2023-09-13T09:57:34.489Z,9.30
2023-09-13T10:00:08.226Z,8.60
2023-09-13T10:02:36.672Z,12.40
2023-09-13T10:05:04.406Z,8.00
2023-09-13T10:07:31.602Z,8.80
2023-09-13T10:09:58.321Z,14.00
2023-09-13T10:12:25.101Z,11.70
2023-09-13T10:14:51.800Z,9.90
2023-09-13T10:17:18.581Z,8.30
2023-09-13T10:19:45.243Z,11.40
2023-09-13T10:22:13.719Z,9.00
2023-09-13T10:24:46.976Z,8.60
2023-09-13T10:27:13.748Z,10.50
2023-09-13T10:29:45.489Z,5.30
2023-09-13T10:32:14.160Z,9.60
2023-09-13T10:35:12.551Z,11.90
2023-09-13T10:38:07.194Z,15.00
2023-09-13T10:40:49.068Z,10.20
2023-09-13T10:43:15.822Z,10.50
2023-09-13T10:45:42.642Z,10.90
2023-09-13T10:48:09.732Z,9.60
2023-09-13T10:55:20.470Z,9.30
2023-09-13T10:57:47.287Z,8.10
2023-09-13T11:00:16.991Z,8.30
2023-09-13T11:02:44.641Z,9.40
2023-09-13T11:05:12.323Z,9.10
2023-09-13T11:07:47.342Z,5.40
2023-09-13T11:10:15.825Z,8.50
2023-09-13T11:12:49.543Z,11.90
2023-09-13T11:15:21.406Z,7.70
2023-09-13T11:17:48.346Z,4.80
2023-09-13T11:20:28.153Z,6.90
2023-09-13T11:23:29.620Z,10.10
2023-09-13T11:26:08.651Z,6.50
2023-09-13T11:28:38.427Z,10.30
2023-09-13T11:31:06.581Z,6.90
2023-09-13T11:34:06.374Z,7.20
2023-09-13T11:36:33.126Z,7.40
2023-09-13T11:39:01.212Z,8.40
2023-09-13T11:46:13.397Z,7.10
2023-09-13T11:48:55.363Z,13.10
2023-09-13T11:51:25.976Z,10.80
2023-09-13T11:53:56.128Z,7.00
2023-09-13T11:56:44.022Z,12.00
2023-09-13T11:59:14.073Z,11.80
2023-09-13T12:01:47.724Z,11.10
2023-09-13T12:06:53.576Z,8.80
2023-09-13T12:09:29.779Z,10.60
2023-09-13T12:12:06.107Z,12.70
2023-09-13T12:14:57.164Z,10.10
2023-09-13T12:17:20.944Z,6.90
2023-09-13T12:19:48.070Z,8.70
2023-09-13T12:22:19.938Z,8.70
2023-09-13T12:24:52.431Z,8.20
2023-09-13T12:29:47.244Z,9.90
2023-09-13T12:32:14.997Z,9.10
2023-09-13T12:34:42.125Z,9.30
2023-09-13T12:37:09.088Z,12.30
2023-09-13T12:39:35.989Z,9.60
2023-09-13T12:42:08.942Z,6.00
2023-09-13T12:44:37.448Z,7.70
2023-09-13T12:47:04.632Z,11.00
2023-09-13T12:49:31.563Z,9.70
2023-09-13T12:51:58.536Z,7.10
2023-09-13T12:54:25.382Z,9.00
2023-09-13T12:56:52.050Z,7.80
2023-09-13T12:59:18.898Z,9.60
2023-09-13T13:01:45.627Z,8.10
2023-09-13T13:04:14.139Z,16.80
2023-09-13T13:07:00.282Z,11.70
2023-09-13T13:09:27.135Z,7.80
2023-09-13T13:11:54.404Z,7.30
2023-09-13T13:14:22.226Z,8.20
2023-09-13T13:16:56.006Z,7.30
2023-09-13T13:19:53.757Z,10.60
2023-09-13T13:22:22.827Z,6.70
2023-09-13T13:24:49.689Z,8.10
2023-09-13T13:27:17.745Z,7.20
2023-09-13T13:29:44.714Z,6.20
2023-09-13T13:32:11.719Z,9.70
2023-09-13T13:34:38.481Z,11.30
2023-09-13T13:37:05.240Z,5.50
2023-09-13T13:39:32.334Z,8.40
2023-09-13T13:41:59.034Z,7.40
2023-09-13T13:44:25.894Z,10.50
2023-09-13T13:46:52.667Z,5.30
2023-09-13T13:49:19.862Z,8.60
2023-09-13T13:51:50.008Z,7.10
2023-09-13T13:54:18.397Z,7.20
2023-09-13T13:57:10.646Z,7.60
2023-09-13T13:59:37.557Z,8.20
2023-09-13T14:02:04.942Z,8.10
2023-09-13T14:04:31.931Z,12.40
2023-09-13T14:06:58.787Z,6.80
2023-09-13T14:09:26.205Z,9.10
2023-09-13T14:11:52.989Z,8.20
2023-09-13T14:14:20.242Z,9.70
2023-09-13T14:16:48.629Z,9.60
2023-09-13T14:19:15.419Z,14.00
2023-09-13T14:21:42.374Z,9.70
2023-09-13T14:24:09.117Z,7.60
2023-09-13T14:26:35.839Z,7.30
2023-09-13T14:29:02.567Z,10.90
2023-09-13T14:31:35.608Z,8.90
2023-09-13T14:34:03.386Z,12.40
2023-09-13T14:36:30.281Z,6.00
2023-09-13T14:38:56.909Z,7.10
2023-09-13T14:41:25.479Z,8.10
2023-09-13T14:48:24.172Z,15.40
2023-09-13T14:50:51.215Z,11.10
2023-09-13T14:53:17.939Z,10.60
2023-09-13T14:55:45.952Z,8.50
2023-09-13T14:58:12.782Z,9.70
2023-09-13T15:00:39.494Z,9.00
2023-09-13T15:03:07.827Z,13.40
2023-09-13T15:05:34.605Z,9.20
2023-09-13T15:08:01.369Z,7.00
2023-09-13T15:10:30.908Z,12.10
2023-09-13T15:12:58.567Z,8.50
2023-09-13T15:15:25.603Z,15.80
2023-09-13T15:17:53.137Z,16.30
2023-09-13T15:24:55.482Z,10.90
2023-09-13T15:27:22.334Z,13.40
2023-09-13T15:29:49.112Z,8.50
2023-09-13T15:32:16.025Z,9.60
2023-09-13T15:34:42.916Z,11.90
2023-09-13T15:37:09.712Z,15.70
2023-09-13T15:39:39.248Z,10.80
2023-09-13T15:42:06.113Z,6.60
2023-09-13T15:44:33.049Z,9.50
2023-09-13T15:46:59.794Z,13.30
2023-09-13T15:49:26.566Z,8.30
2023-09-13T15:51:53.401Z,11.60
2023-09-13T15:54:21.557Z,7.20
2023-09-13T15:56:50.347Z,10.80
2023-09-13T15:59:17.071Z,6.50
2023-09-13T16:01:44.291Z,9.30
2023-09-13T16:04:11.293Z,9.00
2023-09-13T16:06:39.350Z,6.10
2023-09-13T16:09:06.628Z,8.70
2023-09-13T16:11:35.124Z,7.90
2023-09-13T16:14:03.246Z,9.30
2023-09-13T16:16:33.304Z,11.60
2023-09-13T16:19:00.028Z,11.50
2023-09-13T16:21:26.788Z,11.50
2023-09-13T16:23:53.718Z,13.70
2023-09-13T16:26:21.361Z,11.00
2023-09-13T16:28:48.267Z,9.60
2023-09-13T16:31:17.244Z,14.10
2023-09-13T16:33:45.118Z,10.80
2023-09-13T16:36:11.852Z,11.30
2023-09-13T16:38:38.729Z,14.90
2023-09-13T16:41:05.604Z,17.10
2023-09-13T16:43:32.703Z,11.70
2023-09-13T16:46:00.616Z,15.70
2023-09-13T16:48:47.394Z,10.60
2023-09-13T16:51:15.391Z,10.50
2023-09-13T16:53:45.267Z,12.80
2023-09-13T16:56:14.588Z,11.60
2023-09-13T16:58:43.695Z,17.80
2023-09-13T17:01:12.971Z,16.40
2023-09-13T17:03:42.390Z,13.50
2023-09-13T17:06:11.822Z,11.80
2023-09-13T17:08:41.538Z,9.10
2023-09-13T17:11:14.525Z,7.60
2023-09-13T17:13:45.183Z,9.50
2023-09-13T17:16:13.340Z,11.50
2023-09-13T17:18:43.601Z,12.30
2023-09-13T17:21:12.365Z,7.10
2023-09-13T17:23:42.288Z,11.60
2023-09-13T17:26:12.356Z,8.90
2023-09-13T17:28:46.689Z,12.30
2023-09-13T17:31:17.049Z,8.00
2023-09-13T17:33:46.390Z,13.80
2023-09-13T17:36:24.743Z,11.00
2023-09-13T17:39:01.333Z,12.20
2023-09-13T17:41:30.305Z,10.80
2023-09-13T17:43:59.427Z,15.40
2023-09-13T17:46:29.364Z,10.80
2023-09-13T17:49:01.643Z,10.90
2023-09-13T17:59:23.447Z,11.10
2023-09-13T18:01:50.344Z,15.30
2023-09-13T18:04:17.551Z,9.30
2023-09-13T18:06:46.830Z,12.00
2023-09-13T18:09:14.003Z,17.40
2023-09-13T18:11:40.948Z,16.60
2023-09-13T18:14:09.932Z,15.80
2023-09-13T18:16:36.950Z,10.30
2023-09-13T18:19:04.142Z,10.80
2023-09-13T18:21:31.423Z,16.10
2023-09-13T18:23:58.334Z,15.70
2023-09-13T18:26:25.268Z,17.10
2023-09-13T18:28:53.877Z,20.10
2023-09-13T18:31:20.870Z,18.10
2023-09-13T18:33:47.985Z,17.60
2023-09-13T18:36:14.997Z,19.00
2023-09-13T18:38:42.598Z,21.00
2023-09-13T18:41:09.712Z,19.10
2023-09-13T18:43:36.760Z,18.10
2023-09-13T18:46:05.094Z,19.10
2023-09-13T18:48:32.378Z,16.20
2023-09-13T18:51:00.449Z,21.00
2023-09-13T18:53:28.110Z,17.60
2023-09-13T18:55:56.830Z,21.00
2023-09-13T18:58:24.355Z,15.60
2023-09-13T19:00:58.224Z,20.30
2023-09-13T19:03:25.325Z,20.40
2023-09-13T19:06:03.147Z,19.00
2023-09-13T19:08:30.976Z,17.40
2023-09-13T19:11:00.424Z,19.70
2023-09-13T19:13:30.402Z,18.90
2023-09-13T19:16:01.998Z,17.10
2023-09-13T19:18:29.751Z,24.40
2023-09-13T19:20:56.658Z,17.90
2023-09-13T19:23:24.560Z,18.80
2023-09-13T19:25:54.938Z,24.20
2023-09-13T19:28:25.990Z,19.90
2023-09-13T19:30:57.632Z,25.60
2023-09-13T19:33:26.165Z,19.90
2023-09-13T19:35:55.320Z,22.50
2023-09-13T19:38:29.851Z,23.40
2023-09-13T19:40:57.919Z,22.00
2023-09-13T19:43:28.865Z,22.20
2023-09-13T19:46:01.179Z,22.90
2023-09-13T19:48:28.565Z,18.10
2023-09-13T19:51:05.368Z,19.30
2023-09-13T19:53:32.311Z,19.20
2023-09-13T19:55:59.863Z,23.50
2023-09-13T19:58:26.822Z,20.90
2023-09-13T20:01:09.766Z,20.70
2023-09-13T20:03:37.166Z,22.30
2023-09-13T20:06:21.196Z,21.70
2023-09-13T20:08:48.791Z,21.70
2023-09-13T20:11:16.826Z,23.20
2023-09-13T20:13:44.384Z,22.40
2023-09-13T20:16:11.587Z,21.60
2023-09-13T20:18:38.735Z,23.70
2023-09-13T20:21:06.052Z,22.00
2023-09-13T20:23:33.120Z,26.10
2023-09-13T20:25:59.985Z,20.40
2023-09-13T20:28:29.562Z,19.90
2023-09-13T20:30:56.775Z,20.50
2023-09-13T20:33:23.799Z,23.10
2023-09-13T20:35:50.826Z,22.10
2023-09-13T20:38:18.169Z,22.60
2023-09-13T20:40:45.315Z,22.00
2023-09-13T20:43:12.691Z,22.20
2023-09-13T20:45:39.789Z,24.60
2023-09-13T20:48:07.439Z,21.20
2023-09-13T20:50:34.242Z,22.10
2023-09-13T20:53:01.201Z,20.50
2023-09-13T20:55:29.335Z,22.10
2023-09-13T20:57:56.574Z,28.50
2023-09-13T21:00:23.863Z,19.80
2023-09-13T21:02:51.225Z,25.40
2023-09-13T21:05:18.151Z,18.90
2023-09-13T21:07:44.993Z,21.20
2023-09-13T21:10:13.391Z,18.20
2023-09-13T21:12:40.392Z,25.30
2023-09-13T21:15:08.291Z,23.00
2023-09-13T21:17:35.039Z,25.70
2023-09-13T21:20:02.064Z,20.80
2023-09-13T21:22:29.104Z,21.60
2023-09-13T21:24:55.922Z,20.10
2023-09-13T21:27:22.794Z,25.10
2023-09-13T21:29:49.630Z,20.90
2023-09-13T21:32:16.526Z,20.50
2023-09-13T21:34:58.808Z,19.60
2023-09-13T21:37:33.023Z,18.40
2023-09-13T21:40:02.478Z,22.60
2023-09-13T21:42:29.740Z,19.00
2023-09-13T21:44:56.929Z,19.60
2023-09-13T21:47:25.306Z,20.10
2023-09-13T21:49:52.129Z,18.40
2023-09-13T21:52:20.021Z,21.10
2023-09-13T21:54:47.740Z,19.90
2023-09-13T21:57:17.828Z,20.90
2023-09-13T21:59:44.618Z,20.20
2023-09-13T22:02:11.559Z,19.40
2023-09-13T22:04:38.611Z,19.10
2023-09-13T22:07:05.599Z,21.50
2023-09-13T22:09:32.681Z,21.60
2023-09-13T22:12:00.160Z,23.20
2023-09-13T22:14:27.130Z,16.20
2023-09-13T22:16:54.113Z,19.20
2023-09-13T22:19:21.300Z,19.60
2023-09-13T22:21:48.397Z,20.90
2023-09-13T22:24:15.283Z,19.70
2023-09-13T22:26:42.026Z,20.90
2023-09-13T22:29:09.078Z,21.10
2023-09-13T22:31:35.973Z,17.70
2023-09-13T22:34:02.992Z,19.00
2023-09-13T22:36:30.171Z,20.30
2023-09-13T22:39:07.743Z,16.80
2023-09-13T22:41:37.521Z,17.90
2023-09-13T22:44:04.591Z,16.20
2023-09-13T22:46:31.593Z,20.50
2023-09-13T22:48:58.766Z,18.00
2023-09-13T22:51:25.748Z,16.90
2023-09-13T22:53:52.763Z,22.20
2023-09-13T22:56:19.697Z,19.60
2023-09-13T22:58:46.836Z,15.00
2023-09-13T23:01:14.156Z,18.70
2023-09-13T23:03:45.189Z,18.70
2023-09-13T23:06:13.592Z,18.20
2023-09-13T23:08:40.963Z,18.60
2023-09-13T23:11:08.023Z,17.00
2023-09-13T23:13:35.456Z,16.80
2023-09-13T23:16:07.717Z,20.30
2023-09-13T23:18:36.111Z,17.60
2023-09-13T23:21:03.597Z,18.20
2023-09-13T23:23:30.803Z,16.10
2023-09-13T23:26:07.751Z,20.40
2023-09-13T23:28:34.556Z,18.40
2023-09-13T23:31:12.557Z,18.10
2023-09-13T23:33:41.665Z,17.40
2023-09-13T23:36:11.977Z,17.60
2023-09-13T23:38:39.448Z,21.00
2023-09-13T23:41:07.638Z,19.90
2023-09-13T23:43:38.137Z,16.40
2023-09-13T23:46:05.700Z,20.80
2023-09-13T23:48:33.411Z,21.90
2023-09-13T23:51:01.434Z,22.00
2023-09-13T23:53:28.374Z,20.20
2023-09-13T23:55:55.215Z,17.20
2023-09-13T23:58:22.157Z,20.00
